Latest Weather Observations for Alice Springs Airport

IDD60801

Issued at 6:31 am CST Sunday 26 June 2016 (issued every 30 minutes, with the page automatically refreshed every 10 minutes)

About weather observations | Map of weather stations | Latest weather observations for NT | Other Formats
Station Details ID: 015590 Name: ALICE SPRINGS AIRPORT Lat: -23.80 Lon: 133.89 Height: 546.0 m
Data from the previous 72 hours. | See also: Recent months at Alice Springs Airport
Date/Time
CST
Temp
°C
App
Temp
°C
Dew
Point
°C
Rel
Hum
%
Delta-T
°C
Wind Press
QNH
hPa
Press
MSL
hPa
Rain since
9am
mm
Dir  Spd
km/h
Gust
km/h
Spd
kts
Gust
kts
26/06:30am 10.3 8.4 8.9 91 0.7 SSW 9 11 5 6 1017.5 1017.1 0.0
26/06:00am 10.3 8.7 8.9 91 0.7 ESE 7 9 4 5 1016.4 1015.9 0.0
26/05:30am 10.4 8.4 8.8 90 0.8 SE 9 13 5 7 1016.3 1015.8 0.0
26/05:00am 10.5 8.8 8.5 87 1.0 SSE 7 13 4 7 1016.3 1015.8 0.0
26/04:30am 10.5 8.8 8.5 87 1.0 SE 7 11 4 6 1016.1 1015.6 0.0
26/04:00am 10.6 8.1 8.2 85 1.2 SSE 11 15 6 8 1016.1 1015.6 0.0
26/03:30am 10.8 8.6 8.0 83 1.4 SE 9 13 5 7 1016.0 1015.5 0.0
26/03:00am 11.0 9.0 8.6 85 1.2 SSE 9 13 5 7 1016.3 1015.8 0.0
26/02:30am 11.6 9.3 7.4 75 2.1 SE 9 13 5 7 1016.0 1015.5 0.0
26/02:00am 12.0 9.7 7.4 73 2.3 SSW 9 11 5 6 1017.0 1016.6 0.0
26/01:30am 12.5 10.6 6.8 68 2.8 SSE 6 11 3 6 1017.2 1016.8 0.0
26/01:00am 12.2 10.5 7.6 73 2.3 SE 6 11 3 6 1017.1 1016.7 0.0
26/12:30am 12.3 10.0 7.3 71 2.5 SSE 9 11 5 6 1017.6 1017.2 0.0
26/12:00am 13.5 10.2 6.6 63 3.4 S 13 15 7 8 1018.3 1017.8 0.0
 
Date/Time
CST
Temp
°C
App
Temp
°C
Dew
Point
°C
Rel
Hum
%
Delta-T
°C
Wind Press
QNH
hPa
Press
MSL
hPa
Rain since
9am
mm
Dir  Spd
km/h
Gust
km/h
Spd
kts
Gust
kts
25/11:30pm 14.0 12.3 7.7 66 3.2 SE 6 7 3 4 1018.7 1018.3 0.0
25/11:00pm 14.7 11.7 6.0 56 4.3 S 11 15 6 8 1018.6 1018.2 0.0
25/10:30pm 15.1 12.7 7.2 59 4.0 SE 9 11 5 6 1017.6 1017.2 0.0
25/10:00pm 15.6 12.7 6.4 54 4.6 SE 11 19 6 10 1017.4 1017.0 0.0
25/09:30pm 15.5 11.8 6.5 55 4.5 ESE 15 19 8 10 1017.1 1016.7 0.0
25/09:00pm 15.5 12.3 6.8 56 4.4 ESE 13 19 7 10 1016.7 1016.2 0.0
25/08:30pm 15.5 11.6 7.0 57 4.3 E 17 20 9 11 1016.8 1016.4 0.0
25/08:00pm 15.8 11.8 6.7 54 4.6 E 17 20 9 11 1016.7 1016.2 0.0
25/07:30pm 15.7 12.5 6.8 55 4.5 ESE 13 17 7 9 1016.4 1015.9 0.0
25/07:00pm 15.7 12.5 7.0 56 4.4 E 13 17 7 9 1015.8 1015.4 0.0
25/06:30pm 16.0 12.4 6.7 54 4.7 E 15 19 8 10 1015.5 1015.1 0.0
25/06:00pm 16.4 12.3 6.2 51 5.1 E 17 20 9 11 1015.7 1015.3 0.0
25/05:30pm 17.0 13.2 6.0 48 5.5 ESE 15 20 8 11 1015.7 1015.3 0.0
25/05:00pm 17.2 13.0 5.8 47 5.7 E 17 20 9 11 1015.6 1015.2 0.0
25/04:30pm 17.5 13.3 5.7 46 5.9 E 17 20 9 11 1015.8 1015.4 0.0
25/04:00pm 17.7 14.2 5.5 44 6.1 SE 13 19 7 10 1016.5 1016.0 0.0
25/03:30pm 17.7 14.2 5.5 44 6.1 ESE 13 15 7 8 1016.5 1016.0 0.0
25/03:00pm 17.9 14.0 5.5 44 6.2 ENE 15 20 8 11 1016.4 1015.9 0.0
25/02:30pm 17.4 13.1 5.3 45 6.0 ENE 17 22 9 12 1016.6 1016.1 0.0
25/02:00pm 17.8 13.8 5.1 43 6.3 ENE 15 32 8 17 1017.2 1016.8 0.0
25/01:30pm 16.7 11.9 4.8 45 5.8 NE 19 28 10 15 1018.0 1017.5 0.0
25/01:00pm 15.3 10.9 4.7 49 5.1 ENE 17 26 9 14 1018.7 1018.3 0.0
25/12:30pm 14.9 11.2 4.4 49 5.0 ENE 13 20 7 11 1019.5 1019.1 0.0
25/12:00pm 14.9 10.1 4.7 50 4.9 ENE 19 28 10 15 1020.2 1019.8 0.0
25/11:30am 13.8 8.9 4.0 51 4.6 E 19 26 10 14 1020.5 1020.1 0.0
25/11:00am 13.4 9.0 4.5 55 4.2 E 17 24 9 13 1021.3 1020.9 0.0
25/10:30am 12.8 8.0 4.5 57 3.9 ESE 19 26 10 14 1021.4 1021.0 0.0
25/10:00am 12.2 7.8 4.8 60 3.5 E 17 22 9 12 1021.4 1021.0 0.0
25/09:30am 11.8 6.8 4.8 62 3.3 E 20 28 11 15 1021.3 1020.9 0.0
25/09:00am 11.5 7.1 4.9 64 3.1 E 17 24 9 13 1021.3 1020.9 0.0
25/08:30am 11.0 6.6 4.5 64 3.0 E 17 24 9 13 1021.3 1020.9 0.0
25/08:00am 10.9 7.3 4.9 66 2.8 ESE 13 17 7 9 1021.2 1020.8 0.0
25/07:30am 9.4 5.6 5.6 77 1.8 E 15 19 8 10 1020.7 1020.3 0.0
25/07:00am 8.8 5.0 6.0 82 1.3 E 15 19 8 10 1019.9 1019.4 0.0
25/06:30am 9.0 5.7 6.3 83 1.3 E 13 17 7 9 1019.7 1019.3 0.0
25/06:00am 9.8 6.5 6.5 80 1.6 E 13 15 7 8 1020.2 1019.8 0.0
25/05:30am 10.1 7.3 6.8 80 1.6 E 11 13 6 7 1020.4 1020.0 0.0
25/05:00am 10.3 7.9 7.2 81 1.5 E 9 11 5 6 1020.1 1019.7 0.0
25/04:30am 10.0 8.1 7.6 85 1.2 SE 7 9 4 5 1020.5 1020.1 0.0
25/04:00am 9.2 7.3 7.4 88 0.9 ESE 7 9 4 5 1020.5 1020.1 0.0
25/03:30am 9.5 7.5 7.0 84 1.2 ESE 7 9 4 5 1020.3 1019.9 0.0
25/03:00am 9.9 7.9 7.0 82 1.4 E 7 9 4 5 1020.3 1019.9 0.0
25/02:30am 10.2 7.4 6.9 80 1.6 E 11 13 6 7 1020.5 1020.1 0.0
25/02:00am 11.1 9.1 7.0 76 2.0 ESE 7 9 4 5 1021.1 1020.7 0.0
25/01:30am 10.9 8.5 7.0 77 1.9 ESE 9 11 5 6 1021.0 1020.6 0.0
25/01:00am 11.4 9.0 6.9 74 2.2 ESE 9 13 5 7 1021.2 1020.8 0.0
25/12:30am 11.5 9.1 7.0 74 2.2 ESE 9 13 5 7 1021.6 1021.3 0.0
25/12:00am 11.8 8.7 7.1 73 2.3 ESE 13 17 7 9 1021.6 1021.3 0.0
 
Date/Time
CST
Temp
°C
App
Temp
°C
Dew
Point
°C
Rel
Hum
%
Delta-T
°C
Wind Press
QNH
hPa
Press
MSL
hPa
Rain since
9am
mm
Dir  Spd
km/h
Gust
km/h
Spd
kts
Gust
kts
24/11:30pm 11.9 8.8 7.3 73 2.3 ESE 13 19 7 10 1021.9 1021.5 0.0
24/11:00pm 11.8 8.0 7.4 74 2.2 ESE 17 24 9 13 1022.2 1021.8 0.0
24/10:30pm 11.9 7.8 7.7 75 2.1 E 19 24 10 13 1022.3 1021.9 0.0
24/10:00pm 12.1 8.0 7.7 74 2.2 E 19 26 10 14 1022.6 1022.2 0.0
24/09:30pm 13.2 8.7 6.0 61 3.5 ENE 19 30 10 16 1022.4 1022.0 0.0
24/09:00pm 14.0 10.6 5.8 57 4.0 ENE 13 17 7 9 1022.4 1022.0 0.0
24/08:30pm 13.9 9.7 5.7 57 4.0 ENE 17 20 9 11 1021.9 1021.5 0.0
24/08:00pm 14.2 10.7 5.3 55 4.3 ENE 13 19 7 10 1021.9 1021.5 0.0
24/07:30pm 14.5 10.3 5.7 55 4.3 E 17 22 9 12 1021.5 1021.2 0.0
24/07:00pm 14.5 10.2 5.2 53 4.5 ENE 17 19 9 10 1021.3 1020.9 0.0
24/06:30pm 14.6 10.7 5.3 53 4.5 E 15 20 8 11 1020.8 1020.4 0.0
24/06:00pm 15.0 11.0 5.1 51 4.8 ENE 15 20 8 11 1020.5 1020.1 0.0
24/05:30pm 15.4 11.4 4.8 49 5.1 ENE 15 20 8 11 1020.4 1020.0 0.0
24/05:00pm 15.7 10.7 4.5 47 5.4 ENE 20 26 11 14 1020.3 1019.9 0.0
24/04:30pm 15.9 11.4 4.2 45 5.6 E 17 22 9 12 1020.2 1019.8 0.0
24/04:00pm 16.1 11.1 4.5 46 5.6 ENE 20 28 11 15 1020.0 1019.6 0.0
24/03:30pm 16.3 11.4 4.2 44 5.8 E 19 26 10 14 1019.9 1019.4 0.0
24/03:00pm 16.3 10.8 3.9 43 5.9 E 22 32 12 17 1020.0 1019.6 0.0
24/02:30pm 16.2 11.2 3.8 43 5.9 ESE 19 28 10 15 1020.1 1019.7 0.0
24/02:00pm 16.5 11.5 3.7 42 6.1 ESE 19 28 10 15 1020.4 1020.0 0.0
24/01:30pm 16.2 10.5 2.9 41 6.2 ESE 22 32 12 17 1020.4 1020.0 0.0
24/01:00pm 16.3 11.0 3.1 41 6.2 ESE 20 30 11 16 1021.0 1020.6 0.0
24/12:30pm 15.5 9.4 3.0 43 5.8 E 24 33 13 18 1021.9 1021.5 0.0
24/12:00pm 14.4 9.2 3.4 47 5.1 ESE 20 30 11 16 1022.5 1022.1 0.0
24/11:30am 14.6 9.4 3.7 48 5.1 E 20 32 11 17 1022.9 1022.5 0.0
24/11:00am 13.8 8.9 4.2 52 4.5 SE 19 28 10 15 1023.3 1023.0 0.0
24/10:30am 13.8 8.7 4.2 52 4.5 SE 20 30 11 16 1023.6 1023.3 0.0
24/10:00am 13.3 7.3 3.6 52 4.5 SE 24 32 13 17 1023.2 1022.9 0.0
24/09:30am 12.4 7.3 4.2 57 3.8 ESE 20 28 11 15 1023.2 1022.9 0.0
24/09:00am 12.3 7.5 4.6 59 3.6 SE 19 26 10 14 1022.8 1022.4 0.0
24/08:30am 11.7 8.1 5.1 64 3.1 SE 13 19 7 10 1022.6 1022.2 0.0
24/08:00am 11.3 7.8 5.6 68 2.7 SSE 13 17 7 9 1022.2 1021.8 0.0
24/07:30am 10.9 7.8 5.6 70 2.5 SSE 11 17 6 9 1021.9 1021.5 0.0
24/07:00am 11.2 7.6 5.0 65 2.9 SSE 13 19 7 10 1021.5 1021.2 0.0
24/06:30am 11.9 7.6 5.1 63 3.2 SE 17 28 9 15 1021.2 1020.8 0.0
24/06:00am 12.4 8.5 5.5 63 3.3 SE 15 20 8 11 1021.0 1020.6 0.0
24/05:30am 12.8 8.6 5.5 61 3.5 SE 17 26 9 14 1020.7 1020.3 0.0
24/05:00am 12.9 8.7 5.9 62 3.4 SE 17 26 9 14 1020.7 1020.3 0.0
24/04:30am 12.7 9.6 7.3 69 2.7 SSE 13 17 7 9 1020.9 1020.5 0.0
24/04:00am 12.4 8.7 7.8 73 2.3 S 17 28 9 15 1020.7 1020.3 0.0
24/03:30am 12.6 7.7 8.3 75 2.2 S 24 32 13 17 1020.4 1020.0 0.0
24/03:00am 13.2 11.2 10.2 82 1.6 S 11 17 6 9 1020.2 1019.8 0.0
24/02:50am 12.9 10.7 10.7 86 1.2 SSE 13 20 7 11 1020.2 1019.8 0.0
24/02:33am 12.8 10.2 10.7 87 1.1 SSE 15 24 8 13 1020.0 1019.6 0.0
24/02:30am 12.7 9.8 11.0 89 0.9 SSE 17 26 9 14 1020.1 1019.7 0.0
24/02:22am 12.5 9.1 11.4 93 0.6 S 20 30 11 16 1019.7 1019.3 0.0
24/02:00am 13.9 9.3 11.1 83 1.5 S 26 33 14 18 1019.4 1019.0 0.0
24/01:30am 14.4 9.8 12.2 87 1.2 S 28 37 15 20 1019.2 1018.8 0.0
24/01:08am 16.3 13.5 13.3 82 1.7 SSW 20 37 11 20 1018.9 1018.5 0.0
24/01:00am 16.7 14.4 13.0 79 2.1 SSW 17 24 9 13 1018.8 1018.4 0.0
24/12:30am 16.9 14.6 13.1 78 2.2 SSW 17 22 9 12 1018.6 1018.2 0.0
24/12:00am 17.0 15.5 13.0 77 2.3 S 13 17 7 9 1018.5 1018.1 0.0
 
Date/Time
CST
Temp
°C
App
Temp
°C
Dew
Point
°C
Rel
Hum
%
Delta-T
°C
Wind Press
QNH
hPa
Press
MSL
hPa
Rain since
9am
mm
Dir  Spd
km/h
Gust
km/h
Spd
kts
Gust
kts
23/11:30pm 17.2 16.1 13.0 76 2.4 SSW 11 13 6 7 1018.5 1018.1 0.0
23/11:00pm 17.4 16.6 13.0 75 2.5 SSW 9 13 5 7 1018.5 1018.1 0.0
23/10:30pm 17.5 16.3 12.8 74 2.7 SSW 11 15 6 8 1018.1 1017.6 0.0
23/10:00pm 17.7 16.1 12.8 73 2.8 S 13 19 7 10 1017.7 1017.3 0.0
23/09:30pm 17.7 16.6 13.2 75 2.6 S 11 17 6 9 1017.3 1016.9 0.0
23/09:00pm 17.6 17.5 13.8 78 2.2 S 7 9 4 5 1017.0 1016.6 0.0
23/08:30pm 18.1 19.2 13.6 75 2.6 CALM 0 6 0 3 1016.8 1016.4 0.0
23/08:00pm 18.8 19.6 12.7 67 3.5 CALM 0 7 0 4 1016.4 1015.9 0.0
23/07:30pm 19.1 16.8 11.9 63 4.1 SSW 15 19 8 10 1016.2 1015.7 0.0
23/07:00pm 19.4 16.7 11.8 61 4.3 SSW 17 24 9 13 1015.7 1015.3 0.0
23/06:30pm 19.6 18.1 11.9 61 4.4 SSW 11 13 6 7 1015.6 1015.2 0.0
23/06:00pm 20.1 18.5 11.6 58 4.8 SW 11 17 6 9 1015.2 1014.8 0.0
23/05:30pm 20.7 18.1 10.7 52 5.6 SW 15 19 8 10 1015.1 1014.6 0.0
23/05:00pm 21.0 18.5 11.1 53 5.6 SSW 15 22 8 12 1014.6 1014.1 0.0
23/04:30pm 21.4 17.8 10.7 50 6.0 SSW 20 28 11 15 1014.5 1014.0 0.0
23/04:00pm 21.8 18.5 10.8 49 6.2 SSW 19 26 10 14 1014.3 1013.8 0.0
23/03:30pm 22.4 19.0 10.5 47 6.7 SSW 19 26 10 14 1014.1 1013.6 0.0
23/03:00pm 22.7 19.1 10.7 46 6.8 SSW 20 32 11 17 1014.1 1013.6 0.0
23/02:30pm 22.6 18.6 10.3 45 6.9 SSW 22 32 12 17 1014.2 1013.7 0.0
23/02:00pm 23.0 18.5 10.0 43 7.3 SSW 24 33 13 18 1014.2 1013.7 0.0
23/01:30pm 23.6 18.7 8.4 37 8.3 SW 24 33 13 18 1014.3 1013.8 0.0
23/01:00pm 23.5 19.4 8.5 38 8.2 WSW 20 28 11 15 1014.6 1014.1 0.0
23/12:30pm 23.7 19.4 8.0 36 8.5 WSW 20 30 11 16 1015.1 1014.6 0.0
23/12:00pm 23.9 19.7 8.3 37 8.5 W 20 28 11 15 1015.2 1014.8 0.0
23/11:30am 23.8 20.0 7.4 35 8.8 WNW 17 24 9 13 1015.4 1015.0 0.0
23/11:00am 22.8 21.3 8.5 40 7.8 WNW 6 11 3 6 1015.7 1015.3 0.0
23/10:30am 22.1 19.3 8.4 41 7.4 NNW 13 19 7 10 1015.8 1015.4 0.0
23/10:00am 20.3 17.6 8.8 47 6.2 N 13 15 7 8 1016.1 1015.6 0.0
23/09:30am 19.9 17.4 8.3 47 6.2 NW 11 17 6 9 1016.0 1015.5 0.0
23/09:00am 19.5 15.9 8.5 49 5.9 NNW 17 20 9 11 1015.5 1015.1 0.0
23/08:30am 19.2 16.2 7.8 47 6.0 NNW 13 19 7 10 1015.3 1014.9 0.0
23/08:00am 18.5 15.7 8.5 52 5.3 N 13 17 7 9 1015.2 1014.8 0.0
23/07:30am 18.4 14.2 8.4 52 5.3 N 20 28 11 15 1014.7 1014.2 0.0
23/07:00am 18.3 15.1 8.5 52 5.2 NNW 15 19 8 10 1014.9 1014.4 0.0

Other Formats:

Comma delimited format used in spreadsheet applications
http://www.bom.gov.au/fwo/IDD60801/IDD60801.94326.axf

JavaScript Object Notation format (JSON) in row-major order
http://www.bom.gov.au/fwo/IDD60801/IDD60801.94326.json